createdAt,value
2023-04-15T00:04:38.011Z,1.8
2023-04-15T00:10:22.378Z,1.5
2023-04-15T00:16:06.678Z,1.7
2023-04-15T00:21:50.653Z,1.7
2023-04-15T00:27:34.625Z,1.7
2023-04-15T00:33:18.966Z,1.7
2023-04-15T00:39:03.493Z,1.8
2023-04-15T00:44:47.586Z,1.6
2023-04-15T00:50:31.656Z,1.6
2023-04-15T00:56:15.946Z,1.6
2023-04-15T01:02:01.625Z,1.6
2023-04-15T01:07:46.816Z,1.5
2023-04-15T01:13:31.626Z,1.6
2023-04-15T01:19:17.170Z,1.5
2023-04-15T01:25:03.862Z,1.4
2023-04-15T01:30:47.814Z,1.5
2023-04-15T01:36:31.813Z,1.5
2023-04-15T01:42:15.774Z,1.5
2023-04-15T01:48:00.062Z,1.6
2023-04-15T01:53:44.209Z,1.4
2023-04-15T01:59:28.076Z,1.5
2023-04-15T02:05:12.334Z,1.5
2023-04-15T02:10:56.441Z,1.4
2023-04-15T02:16:40.671Z,1.5
2023-04-15T02:22:25.065Z,1.8
2023-04-15T02:28:09.117Z,1.4
2023-04-15T02:33:53.396Z,1.4
2023-04-15T02:39:37.677Z,1.5
2023-04-15T02:45:21.862Z,1.6
2023-04-15T02:51:19.247Z,1.5
2023-04-15T02:57:03.475Z,1.6
2023-04-15T03:02:54.011Z,1.5
2023-04-15T03:08:38.438Z,1.5
2023-04-15T03:14:22.758Z,1.5
2023-04-15T03:20:08.319Z,1.6
2023-04-15T03:25:52.191Z,1.5
2023-04-15T03:31:36.437Z,1.5
2023-04-15T03:37:20.561Z,1.2
2023-04-15T03:43:04.722Z,1.4
2023-04-15T03:48:49.057Z,1.4
2023-04-15T03:54:33.101Z,1.4
2023-04-15T04:00:17.738Z,1.4
2023-04-15T04:06:01.790Z,1.5
2023-04-15T04:11:45.968Z,1.5
2023-04-15T04:17:30.151Z,1.4
2023-04-15T04:23:14.400Z,1.4
2023-04-15T04:28:58.753Z,1.5
2023-04-15T04:34:43.320Z,1.6
2023-04-15T04:40:27.438Z,1.4
2023-04-15T04:46:11.707Z,1.5
2023-04-15T04:51:56.226Z,1.5
2023-04-15T04:57:40.421Z,1.4
2023-04-15T05:03:24.944Z,1.5
2023-04-15T05:09:09.254Z,1.6
2023-04-15T05:14:53.376Z,1.7
2023-04-15T05:20:37.486Z,1.5
2023-04-15T05:26:22.521Z,1.6
2023-04-15T05:32:06.805Z,1.6
2023-04-15T05:37:50.925Z,1.6
2023-04-15T05:43:34.958Z,1.7
2023-04-15T05:49:19.059Z,1.8
2023-04-15T05:55:03.189Z,1.8
2023-04-15T06:00:47.259Z,1.7
2023-04-15T06:06:31.212Z,1.8
2023-04-15T06:12:15.122Z,1.9
2023-04-15T06:17:59.151Z,2.1
2023-04-15T06:23:43.253Z,2.1
2023-04-15T06:29:27.234Z,2.3
2023-04-15T06:35:11.778Z,2.2
2023-04-15T06:40:55.776Z,2.1
2023-04-15T06:46:39.787Z,2.1
2023-04-15T06:52:23.754Z,2.3
2023-04-15T06:58:07.748Z,2.2
2023-04-15T07:03:51.913Z,2.2
2023-04-15T07:09:36.259Z,2.4
2023-04-15T07:15:20.460Z,2.1
2023-04-15T07:21:05.924Z,2.3
2023-04-15T07:26:49.876Z,2.2
2023-04-15T07:32:34.024Z,2.3
2023-04-15T07:38:18.016Z,2.2
2023-04-15T07:44:02.158Z,2.4
2023-04-15T07:49:46.105Z,2.2
2023-04-15T07:55:30.928Z,2.4
2023-04-15T08:01:15.063Z,2.4
2023-04-15T08:06:58.962Z,2.2
2023-04-15T08:12:42.847Z,2.4
2023-04-15T08:18:26.849Z,2.3
2023-04-15T08:24:11.047Z,2.3
2023-04-15T08:29:54.975Z,2.3
2023-04-15T08:35:39.073Z,2.2
2023-04-15T08:41:25.904Z,2.2
2023-04-15T08:47:10.830Z,2.2
2023-04-15T08:52:55.487Z,2.1
2023-04-15T08:58:39.906Z,1.9
2023-04-15T09:04:26.022Z,2.1
2023-04-15T09:10:11.203Z,2.1
2023-04-15T09:15:55.441Z,2.1
2023-04-15T09:21:39.654Z,2.3
2023-04-15T09:27:23.393Z,2.1
2023-04-15T09:33:07.618Z,2.3
2023-04-15T09:39:02.174Z,2.1
2023-04-15T09:44:46.591Z,2.3
2023-04-15T09:50:32.382Z,2.2
2023-04-15T09:56:16.927Z,2.1
2023-04-15T10:02:02.002Z,2.1
2023-04-15T10:07:46.606Z,2.4
2023-04-15T10:13:32.430Z,2.3
2023-04-15T10:19:17.869Z,1.8
2023-04-15T10:25:02.168Z,2.1
2023-04-15T10:30:46.281Z,2.5
2023-04-15T10:36:30.749Z,2
2023-04-15T10:42:15.959Z,2.7
2023-04-15T10:48:05.729Z,2.5
2023-04-15T10:53:50.134Z,2.5
2023-04-15T10:59:35.690Z,2.3
2023-04-15T11:05:20.134Z,2.1
2023-04-15T11:11:03.951Z,2
2023-04-15T11:16:49.136Z,2.1
2023-04-15T11:22:33.185Z,2.1
2023-04-15T11:28:17.018Z,1.8
2023-04-15T11:34:02.069Z,1.8
2023-04-15T11:39:46.226Z,1.8
2023-04-15T11:45:30.601Z,1.8
2023-04-15T11:51:15.468Z,1.5
2023-04-15T11:56:59.548Z,1.6
2023-04-15T12:02:44.157Z,1.7
2023-04-15T12:08:28.456Z,1.7
2023-04-15T12:14:14.111Z,1.5
2023-04-15T12:19:58.471Z,1.8
2023-04-15T12:25:42.720Z,1.5
2023-04-15T12:31:27.088Z,1.5
2023-04-15T12:37:11.990Z,1.4
2023-04-15T12:42:55.960Z,1.4
2023-04-15T12:48:39.953Z,1.6
2023-04-15T12:54:23.857Z,1.6
2023-04-15T13:00:08.532Z,1.2
2023-04-15T13:05:52.608Z,1.4
2023-04-15T13:11:37.118Z,1.5
2023-04-15T13:17:21.195Z,1.4
2023-04-15T13:23:05.322Z,1.5
2023-04-15T13:28:49.385Z,1.4
2023-04-15T13:34:33.504Z,1.3
2023-04-15T13:40:17.655Z,1.4
2023-04-15T13:46:02.006Z,1.3
2023-04-15T13:51:46.242Z,1.3
2023-04-15T13:57:31.477Z,1.3
2023-04-15T14:03:16.022Z,1.2
2023-04-15T14:09:00.889Z,1.2
2023-04-15T14:14:45.069Z,1.3
2023-04-15T14:20:29.287Z,1.1
2023-04-15T14:26:13.332Z,1
2023-04-15T14:32:11.230Z,1.2
2023-04-15T14:37:58.933Z,1
2023-04-15T14:43:43.348Z,1.1
2023-04-15T14:49:27.517Z,1.3
2023-04-15T14:55:12.980Z,1.2
2023-04-15T15:00:57.431Z,1.3
2023-04-15T15:06:41.749Z,1.2
2023-04-15T15:12:25.793Z,1
2023-04-15T15:18:11.120Z,1
2023-04-15T15:23:55.048Z,1
2023-04-15T15:29:39.460Z,1.1
2023-04-15T15:35:23.504Z,0.9
2023-04-15T15:41:07.616Z,1
2023-04-15T15:46:52.300Z,0.9
2023-04-15T15:52:36.282Z,0.8
2023-04-15T15:58:20.050Z,1
2023-04-15T16:04:04.711Z,0.9
2023-04-15T16:09:49.003Z,1.1
2023-04-15T16:15:32.942Z,0.9
2023-04-15T16:21:17.221Z,1
2023-04-15T16:27:01.066Z,0.9
2023-04-15T16:32:45.458Z,1
2023-04-15T16:38:29.680Z,1.1
2023-04-15T16:44:13.745Z,0.9
2023-04-15T16:49:57.691Z,1.1
2023-04-15T16:55:41.715Z,1
2023-04-15T17:01:26.427Z,1.1
2023-04-15T17:07:10.965Z,1.2
2023-04-15T17:12:54.972Z,1.1
2023-04-15T17:18:41.002Z,1.2
2023-04-15T17:24:24.905Z,1.4
2023-04-15T17:30:09.762Z,1.3
2023-04-15T17:35:53.826Z,1.4
2023-04-15T17:41:38.909Z,1.2
2023-04-15T17:47:23.100Z,1.4
2023-04-15T17:53:07.242Z,1.2
2023-04-15T17:58:51.474Z,1.2
2023-04-15T18:04:36.100Z,1.1
2023-04-15T18:10:20.457Z,1
2023-04-15T18:16:04.615Z,1.1
2023-04-15T18:21:48.547Z,1.2
2023-04-15T18:27:32.982Z,1.1
2023-04-15T18:33:17.085Z,1.2
2023-04-15T18:39:00.890Z,1.2
2023-04-15T18:44:45.103Z,1.2
2023-04-15T18:50:30.355Z,1.2
2023-04-15T18:56:14.261Z,1.5
2023-04-15T19:01:58.316Z,1.5
2023-04-15T19:07:42.535Z,1.5
2023-04-15T19:13:26.644Z,1.7
2023-04-15T19:19:11.566Z,1.7
2023-04-15T19:24:56.276Z,1.6
2023-04-15T19:30:40.523Z,1.7
2023-04-15T19:36:24.623Z,1.7
2023-04-15T19:42:09.690Z,1.8
2023-04-15T19:47:53.934Z,2
2023-04-15T19:53:37.983Z,1.9
2023-04-15T19:59:21.943Z,1.7
2023-04-15T20:05:06.195Z,2.1
2023-04-15T20:10:50.167Z,1.9
2023-04-15T20:16:36.610Z,1.9
2023-04-15T20:22:20.609Z,2
2023-04-15T20:28:04.690Z,2
2023-04-15T20:33:48.609Z,2
2023-04-15T20:39:32.908Z,2.1
2023-04-15T20:45:16.967Z,2.2
2023-04-15T20:51:00.993Z,2.2
2023-04-15T20:56:44.901Z,2.1
2023-04-15T21:02:30.363Z,2.4
2023-04-15T21:08:14.788Z,2.6
2023-04-15T21:13:58.930Z,2.8
2023-04-15T21:19:42.938Z,2.7
2023-04-15T21:25:26.877Z,3
2023-04-15T21:31:10.888Z,2.9
2023-04-15T21:36:54.864Z,3.1
2023-04-15T21:42:39.054Z,2.8
2023-04-15T21:48:23.309Z,2.8
2023-04-15T21:54:07.454Z,3
2023-04-15T21:59:51.436Z,3.2
2023-04-15T22:05:35.402Z,3
2023-04-15T22:11:24.490Z,2.7
2023-04-15T22:17:09.593Z,3.2
2023-04-15T22:22:56.686Z,3.1
2023-04-15T22:28:40.364Z,3
2023-04-15T22:34:24.549Z,3
2023-04-15T22:40:09.045Z,3.1
2023-04-15T22:45:55.281Z,3.4
2023-04-15T22:51:39.124Z,3.4
2023-04-15T22:57:23.314Z,3.6
2023-04-15T23:03:09.838Z,3.7
2023-04-15T23:08:54.326Z,3.9
2023-04-15T23:14:39.275Z,3.4
2023-04-15T23:20:23.252Z,3.4
2023-04-15T23:26:07.270Z,3.1
2023-04-15T23:31:51.396Z,3.1
2023-04-15T23:37:35.794Z,2.9
2023-04-15T23:43:20.161Z,2.9
2023-04-15T23:49:04.267Z,2.9
2023-04-15T23:54:48.314Z,2.8
